Time;durP1;ratioP1;P1;durP2;ratioP2;P2;SDS_P1;SDS_P2;PMS_P1;PMS_P2;Temp;Humidity;BMP_temperature;BMP_pressure;BME280_temperature;BME280_humidity;BME280_pressure;Samples;Min_cycle;Max_cycle;Signal;HPM_P1;HPM_P2
2022/05/10 00:00:04;;;;;;;3.42;1.70;;;;;;;6.48;68.81;97031.44;5072826;28;20025;-63
2022/05/10 00:02:33;;;;;;;3.22;2.08;;;;;;;6.39;69.23;97022.91;5072996;28;20486;-62
2022/05/10 00:04:59;;;;;;;1.95;1.65;;;;;;;6.39;69.67;97030.69;5072963;28;20066;-62
2022/05/10 00:07:27;;;;;;;2.40;1.67;;;;;;;6.39;69.12;97025.50;5072821;28;20027;-62
2022/05/10 00:09:53;;;;;;;3.30;1.90;;;;;;;6.38;69.23;97030.72;5072738;28;20385;-61
2022/05/10 00:12:19;;;;;;;8.77;1.90;;;;;;;6.31;68.59;97025.59;5072922;28;20021;-62
2022/05/10 00:14:44;;;;;;;4.18;1.70;;;;;;;6.29;68.02;97022.13;5072769;28;20047;-62
2022/05/10 00:17:22;;;;;;;8.05;1.80;;;;;;;6.19;68.45;97012.75;5072886;28;20037;-62
2022/05/10 00:19:47;;;;;;;3.20;1.77;;;;;;;6.24;69.04;97029.16;5072742;28;20497;-62
2022/05/10 00:22:13;;;;;;;1.42;1.30;;;;;;;6.27;69.26;97020.44;5072723;28;20017;-63
2022/05/10 00:24:39;;;;;;;1.92;1.70;;;;;;;6.25;68.88;97011.81;5072815;28;20029;-63
2022/05/10 00:27:05;;;;;;;1.63;1.40;;;;;;;6.28;69.08;97020.44;5072715;28;20024;-62
2022/05/10 00:29:30;;;;;;;2.65;1.88;;;;;;;6.32;69.05;97013.44;5072706;28;20021;-62
2022/05/10 00:31:56;;;;;;;3.58;1.80;;;;;;;6.30;68.84;97016.06;5072519;28;20051;-63
2022/05/10 00:34:30;;;;;;;1.88;1.70;;;;;;;6.29;68.57;97016.09;5072635;28;20517;-62
2022/05/10 00:36:56;;;;;;;3.67;1.83;;;;;;;6.35;68.74;97015.16;5072644;28;20040;-62
2022/05/10 00:39:22;;;;;;;3.35;1.67;;;;;;;6.34;68.27;97010.81;5072244;28;20191;-62
2022/05/10 00:42:12;;;;;;;4.75;2.17;;;;;;;6.37;68.64;97010.78;5072472;28;20103;-63
2022/05/10 00:44:44;;;;;;;3.58;1.73;;;;;;;6.27;68.46;97005.72;5072080;28;20555;-62
2022/05/10 00:47:21;;;;;;;2.97;1.50;;;;;;;6.27;68.37;97008.31;5072450;28;20082;-62
2022/05/10 00:49:59;;;;;;;5.25;1.73;;;;;;;6.25;68.57;97007.47;5072453;28;20044;-62
2022/05/10 00:52:57;;;;;;;4.97;1.90;;;;;;;6.17;68.45;97002.38;5072551;28;20028;-63
2022/05/10 00:55:28;;;;;;;1.50;1.25;;;;;;;6.14;68.86;97007.59;5047680;28;20037;-62
2022/05/10 00:58:07;;;;;;;4.53;1.52;;;;;;;6.03;69.22;97002.53;5072486;28;20090;-63
2022/05/10 01:00:33;;;;;;;2.38;1.40;;;;;;;5.87;69.35;97001.84;5072289;28;20029;-63
2022/05/10 01:03:22;;;;;;;6.57;1.63;;;;;;;5.89;69.61;97001.81;5072814;28;20060;-63
2022/05/10 01:05:59;;;;;;;3.30;1.58;;;;;;;5.94;69.64;97000.03;5075802;28;20032;-64
2022/05/10 01:08:29;;;;;;;2.97;1.70;;;;;;;5.92;69.81;96994.88;5075879;28;20085;-63
2022/05/10 01:10:58;;;;;;;2.10;1.73;;;;;;;5.84;69.91;96996.69;5075856;28;20060;-64
2022/05/10 01:13:51;;;;;;;1.80;1.63;;;;;;;5.87;69.88;96990.59;5075727;28;20474;-63
2022/05/10 01:16:20;;;;;;;3.58;2.15;;;;;;;5.85;69.54;96989.75;5075806;28;20032;-64
2022/05/10 01:18:47;;;;;;;5.65;2.28;;;;;;;5.84;69.80;96986.28;5075702;28;20033;-63
2022/05/10 01:21:39;;;;;;;3.60;2.08;;;;;;;5.81;69.79;96992.38;5075443;28;20379;-62
2022/05/10 01:24:14;;;;;;;7.03;2.03;;;;;;;5.81;69.74;96996.75;5075679;28;20024;-63
2022/05/10 01:26:54;;;;;;;5.20;1.92;;;;;;;5.85;69.68;96995.81;5075562;28;20029;-63
2022/05/10 01:29:32;;;;;;;4.07;2.20;;;;;;;5.80;69.92;96995.00;5075512;28;20042;-63
2022/05/10 01:34:51;;;;;;;1.92;1.60;;;;;;;5.60;69.81;96983.09;5075496;28;20067;-64
2022/05/10 01:37:22;;;;;;;1.80;1.58;;;;;;;5.62;70.25;96990.88;5075430;28;20029;-63
2022/05/10 01:39:55;;;;;;;;;;;;;;;5.57;69.96;96985.75;5075650;28;20048;-64
2022/05/10 01:43:00;;;;;;;4.20;1.70;;;;;;;5.41;71.14;96974.66;5075246;28;20392;-64
2022/05/10 01:45:35;;;;;;;2.20;2.00;;;;;;;5.33;71.64;96969.56;5075104;28;20051;-64
2022/05/10 01:48:03;;;;;;;3.10;1.90;;;;;;;5.30;71.34;96974.78;5075135;28;20029;-64
2022/05/10 01:50:45;;;;;;;4.20;1.58;;;;;;;5.31;71.49;96966.13;5075082;28;20020;-63
2022/05/10 01:53:16;;;;;;;3.55;2.03;;;;;;;5.30;71.93;96970.44;5075211;28;20028;-64
2022/05/10 01:55:50;;;;;;;2.85;1.75;;;;;;;5.24;72.27;96967.06;5074886;28;20024;-63
2022/05/10 01:58:19;;;;;;;4.20;1.90;;;;;;;5.27;72.05;96964.44;5074871;28;20112;-64
2022/05/10 02:00:55;;;;;;;1.73;1.60;;;;;;;5.29;71.85;96967.84;5074826;28;20055;-64
2022/05/10 02:03:27;;;;;;;1.85;1.48;;;;;;;5.32;72.07;96957.44;5074990;28;20058;-64
2022/05/10 02:05:59;;;;;;;3.08;1.70;;;;;;;5.35;71.96;96964.34;5074850;28;20100;-64
2022/05/10 02:08:55;;;;;;;2.95;1.80;;;;;;;5.36;71.72;96964.31;5074614;28;20027;-63
2022/05/10 02:11:22;;;;;;;5.97;1.50;;;;;;;5.35;71.61;96966.94;5061505;28;20037;-62
2022/05/10 02:13:55;;;;;;;3.33;2.05;;;;;;;5.34;71.74;96966.09;5074449;28;20013;-63
2022/05/10 02:16:25;;;;;;;3.97;1.75;;;;;;;5.39;71.67;96963.44;5074620;28;20024;-63
2022/05/10 02:19:01;;;;;;;3.13;1.73;;;;;;;5.41;71.79;96961.69;5074563;28;20111;-63
2022/05/10 02:21:39;;;;;;;6.10;1.88;;;;;;;5.41;71.25;96959.97;5074333;28;20389;-64
2022/05/10 02:24:21;;;;;;;2.55;1.90;;;;;;;5.39;71.28;96956.50;5074369;28;20032;-63
2022/05/10 02:26:57;;;;;;;3.72;1.60;;;;;;;5.35;71.40;96964.34;5074368;28;20028;-64
2022/05/10 02:29:44;;;;;;;4.15;2.00;;;;;;;5.33;71.60;96961.78;5074348;28;20035;-64
2022/05/10 02:35:04;;;;;;;4.32;1.50;;;;;;;5.29;71.68;96960.94;5074239;28;20047;-63
2022/05/10 02:37:31;;;;;;;2.97;1.77;;;;;;;5.23;71.92;96958.41;5074125;28;20024;-63
2022/05/10 02:39:58;;;;;;;4.07;1.58;;;;;;;5.18;72.69;96955.84;5073811;28;20075;-64
2022/05/10 02:42:25;;;;;;;1.70;1.60;;;;;;;5.15;72.92;96961.06;5074076;28;20101;-64
2022/05/10 02:44:54;;;;;;;2.00;1.70;;;;;;;5.11;73.10;96964.56;5074090;28;20059;-63
2022/05/10 02:47:36;;;;;;;3.75;1.98;;;;;;;5.12;72.94;96960.25;5073897;28;20386;-63
2022/05/10 02:50:05;;;;;;;3.83;1.70;;;;;;;5.13;72.74;96954.19;5073977;28;20115;-64
2022/05/10 02:52:30;;;;;;;2.58;2.05;;;;;;;5.13;72.75;96954.19;5073870;28;20016;-64
2022/05/10 02:55:00;;;;;;;3.05;1.67;;;;;;;5.10;72.62;96952.50;5073803;28;20013;-64
2022/05/10 02:57:27;;;;;;;2.33;1.90;;;;;;;5.11;72.89;96950.72;5073807;28;20028;-64
2022/05/10 02:59:57;;;;;;;4.45;1.70;;;;;;;5.08;72.92;96953.38;5073604;28;20024;-65
2022/05/10 03:02:32;;;;;;;2.75;1.77;;;;;;;5.09;73.49;96945.56;5073804;28;20078;-63
2022/05/10 03:04:58;;;;;;;1.92;1.67;;;;;;;5.06;73.72;96945.63;5073715;28;20058;-63
2022/05/10 03:07:29;;;;;;;2.85;1.88;;;;;;;5.02;73.51;96946.50;5073612;28;20016;-64
2022/05/10 03:09:55;;;;;;;5.35;1.80;;;;;;;5.03;73.89;96946.47;5073692;28;20029;-63
2022/05/10 03:12:21;;;;;;;4.32;2.10;;;;;;;5.08;73.73;96945.59;5073384;28;20071;-64
2022/05/10 03:14:47;;;;;;;3.70;2.00;;;;;;;5.14;73.44;96940.34;5073474;28;20040;-64
2022/05/10 03:17:13;;;;;;;3.05;1.73;;;;;;;5.15;73.04;96948.09;5073376;28;20116;-65
2022/05/10 03:19:40;;;;;;;4.50;1.70;;;;;;;5.16;73.29;96941.19;5073223;28;20097;-63
2022/05/10 03:22:07;;;;;;;3.63;1.88;;;;;;;5.24;73.35;96944.56;5073294;28;20017;-64
2022/05/10 03:24:34;;;;;;;2.80;2.08;;;;;;;5.28;73.37;96943.66;5073361;28;20374;-63
2022/05/10 03:27:03;;;;;;;5.47;2.03;;;;;;;5.35;73.55;96943.56;5072794;28;20421;-64
2022/05/10 03:29:29;;;;;;;2.92;1.63;;;;;;;5.40;73.62;96937.50;5073291;28;20032;-64
2022/05/10 03:31:55;;;;;;;2.95;2.13;;;;;;;5.47;73.00;96938.25;5073165;28;20027;-64
2022/05/10 03:37:05;;;;;;;4.10;1.73;;;;;;;5.60;72.66;96940.72;5073234;28;20063;-64
2022/05/10 03:39:31;;;;;;;5.88;1.77;;;;;;;5.60;72.35;96944.16;5072908;28;20483;-64
2022/05/10 03:41:56;;;;;;;3.67;1.55;;;;;;;5.63;72.66;96954.50;5073065;28;20064;-64
2022/05/10 03:44:22;;;;;;;9.75;2.10;;;;;;;5.67;73.38;96944.97;5073040;28;20063;-64
2022/05/10 03:46:48;;;;;;;4.82;2.20;;;;;;;6.02;73.75;96942.81;5073042;28;20466;-64
2022/05/10 03:49:15;;;;;;;2.67;1.60;;;;;;;6.56;72.52;96944.66;5073104;28;20029;-64
2022/05/10 03:51:41;;;;;;;5.50;1.63;;;;;;;7.07;71.11;96952.50;5073138;28;20013;-64
2022/05/10 03:54:06;;;;;;;1.90;1.60;;;;;;;7.61;69.46;96950.66;5073008;28;20031;-64
2022/05/10 03:56:34;;;;;;;3.28;1.40;;;;;;;8.15;67.68;96953.91;5073112;28;20103;-64
2022/05/10 03:58:59;;;;;;;2.33;1.50;;;;;;;8.65;66.32;96947.63;5073020;28;20024;-64
2022/05/10 04:01:25;;;;;;;2.55;1.83;;;;;;;9.14;64.74;96960.34;5072931;28;20105;-63
2022/05/10 04:03:51;;;;;;;4.32;1.75;;;;;;;9.56;63.17;96954.03;5072910;28;20531;-63
2022/05/10 04:06:16;;;;;;;4.22;1.70;;;;;;;10.01;62.29;96951.91;5072858;28;20081;-63
2022/05/10 04:08:42;;;;;;;2.15;1.17;;;;;;;10.52;61.24;96953.94;5072899;28;20016;-64
2022/05/10 04:11:10;;;;;;;2.85;1.40;;;;;;;11.00;59.73;96955.03;5072870;28;20118;-63
2022/05/10 04:13:37;;;;;;;2.88;1.45;;;;;;;11.38;59.12;96955.47;5072937;28;20025;-64
2022/05/10 04:16:03;;;;;;;3.53;2.10;;;;;;;11.84;57.51;96953.91;5072803;28;20024;-63
2022/05/10 04:18:29;;;;;;;3.85;1.85;;;;;;;12.19;57.08;96957.00;5072655;28;20032;-63
2022/05/10 04:20:55;;;;;;;2.33;1.40;;;;;;;12.52;56.10;96961.00;5072589;28;20096;-64
2022/05/10 04:23:21;;;;;;;2.65;1.30;;;;;;;12.91;55.35;96954.22;5072771;28;20025;-64
2022/05/10 04:25:47;;;;;;;2.78;1.77;;;;;;;13.18;54.62;96959.25;5072667;28;20020;-63
2022/05/10 04:28:12;;;;;;;3.08;1.77;;;;;;;13.51;53.87;96961.41;5072781;28;20074;-63
2022/05/10 04:30:38;;;;;;;2.88;1.38;;;;;;;13.79;53.08;96966.38;5072679;28;20027;-64
2022/05/10 04:33:04;;;;;;;4.00;1.20;;;;;;;14.02;52.80;96960.94;5072629;28;20032;-63
2022/05/10 04:35:29;;;;;;;1.52;1.42;;;;;;;14.30;52.80;96950.91;5072568;28;20023;-63
2022/05/10 04:37:55;;;;;;;2.20;1.48;;;;;;;14.60;52.97;96955.66;5073056;28;20025;-63
2022/05/10 04:43:22;;;;;;;2.95;1.77;;;;;;;15.23;50.67;96956.16;5034395;28;20033;-63
2022/05/10 04:45:48;;;;;;;3.80;1.35;;;;;;;15.58;51.56;96955.28;5067337;28;20043;-63
2022/05/10 04:48:15;;;;;;;3.03;1.27;;;;;;;15.94;51.71;96955.22;5076153;28;20043;-62
2022/05/10 04:50:41;;;;;;;3.08;1.48;;;;;;;16.16;50.51;96950.53;5076242;28;20032;-63
2022/05/10 04:53:06;;;;;;;1.30;1.20;;;;;;;16.45;49.12;96957.78;5076332;28;20386;-63
2022/05/10 04:55:32;;;;;;;2.22;1.58;;;;;;;16.60;47.55;96956.09;5076082;28;20016;-63
2022/05/10 04:57:58;;;;;;;2.35;1.48;;;;;;;16.79;50.06;96961.19;5076035;28;20028;-63
2022/05/10 05:00:24;;;;;;;2.60;1.70;;;;;;;17.13;50.00;96966.34;5075873;28;20024;-62
2022/05/10 05:02:50;;;;;;;3.22;1.63;;;;;;;17.42;49.95;96965.59;5075906;28;20497;-62
2022/05/10 05:05:15;;;;;;;5.07;1.48;;;;;;;17.81;50.10;96961.50;5075890;28;20020;-63
2022/05/10 05:07:41;;;;;;;9.25;1.50;;;;;;;18.10;50.05;96958.03;5075878;28;20116;-62
2022/05/10 05:10:09;;;;;;;2.47;1.33;;;;;;;18.40;48.71;96959.72;5074548;28;20024;-63
2022/05/10 05:12:36;;;;;;;3.53;1.38;;;;;;;18.76;47.36;96961.91;5075738;28;20427;-62
2022/05/10 05:15:05;;;;;;;2.25;1.27;;;;;;;19.04;46.75;96960.09;5075900;28;20105;-62
2022/05/10 05:17:30;;;;;;;2.95;1.60;;;;;;;19.18;44.08;96962.69;5075666;28;20017;-63
2022/05/10 05:19:56;;;;;;;2.78;1.65;;;;;;;19.38;43.39;96959.69;5075496;28;20355;-62
2022/05/10 05:22:22;;;;;;;4.63;2.00;;;;;;;19.51;44.04;96962.34;5075598;28;20111;-62
2022/05/10 05:24:48;;;;;;;4.75;2.20;;;;;;;19.70;44.23;96961.94;5075555;28;20058;-62
2022/05/10 05:27:13;;;;;;;4.82;2.20;;;;;;;19.88;42.18;96954.50;5075551;28;20092;-62
2022/05/10 05:29:39;;;;;;;8.02;2.00;;;;;;;20.17;44.05;96954.28;5075496;28;20111;-62
2022/05/10 05:32:09;;;;;;;7.75;2.15;;;;;;;20.38;42.30;96945.75;5075351;28;20036;-62
2022/05/10 05:34:35;;;;;;;6.63;2.00;;;;;;;20.58;42.62;96949.63;5075660;28;20017;-62
2022/05/10 05:39:45;;;;;;;2.10;1.38;;;;;;;20.89;41.30;96943.88;5075126;28;20487;-62
2022/05/10 05:42:11;;;;;;;3.22;1.65;;;;;;;21.16;40.35;96952.63;5075273;28;20025;-62
2022/05/10 05:44:38;;;;;;;2.50;1.45;;;;;;;21.35;39.70;96949.41;5075121;28;20432;-62
2022/05/10 05:47:03;;;;;;;5.53;1.60;;;;;;;21.45;39.69;96950.41;5075200;28;20033;-61
2022/05/10 05:49:29;;;;;;;2.63;1.58;;;;;;;21.68;38.51;96957.59;5074691;28;20110;-62
2022/05/10 05:51:56;;;;;;;8.27;4.32;;;;;;;21.91;38.05;96945.19;5075122;28;20102;-62
2022/05/10 05:54:22;;;;;;;5.53;3.38;;;;;;;21.93;37.15;96951.25;5075023;28;20031;-62
2022/05/10 05:56:47;;;;;;;2.90;2.00;;;;;;;21.95;37.64;96956.47;5074915;28;20021;-62
2022/05/10 05:59:13;;;;;;;5.35;2.03;;;;;;;22.19;37.43;96953.66;5074986;28;20028;-61
2022/05/10 06:01:39;;;;;;;4.70;1.55;;;;;;;22.58;36.95;96955.97;5074897;28;20064;-62
2022/05/10 06:04:04;;;;;;;3.03;1.77;;;;;;;22.91;36.47;96956.00;5074782;28;20073;-61
2022/05/10 06:06:30;;;;;;;3.50;1.73;;;;;;;23.18;36.53;96951.19;5074861;28;20498;-62
2022/05/10 06:08:55;;;;;;;2.92;1.30;;;;;;;23.43;35.92;96952.69;5074744;28;20040;-61
2022/05/10 06:11:21;;;;;;;2.47;1.45;;;;;;;23.43;35.50;96955.34;5074593;28;20028;-61
2022/05/10 06:13:47;;;;;;;2.33;1.45;;;;;;;23.48;35.99;96954.97;5074599;28;20024;-61
2022/05/10 06:16:12;;;;;;;8.85;1.73;;;;;;;23.66;34.62;96960.53;5074631;28;20025;-62
2022/05/10 06:18:39;;;;;;;2.60;1.60;;;;;;;24.02;34.99;96964.69;5074476;28;20417;-61
2022/05/10 06:21:04;;;;;;;6.28;1.60;;;;;;;24.20;33.91;96960.44;5074338;28;20071;-62
2022/05/10 06:23:30;;;;;;;6.40;1.52;;;;;;;24.26;33.90;96964.38;5074336;28;20032;-62
2022/05/10 06:25:56;;;;;;;5.07;1.50;;;;;;;24.25;34.39;96954.69;5074307;28;20032;-61
2022/05/10 06:28:21;;;;;;;6.95;1.70;;;;;;;24.49;33.67;96969.53;5074211;28;20020;-62
2022/05/10 06:30:47;;;;;;;4.82;1.50;;;;;;;24.73;33.09;96960.31;5056366;28;20052;-61
2022/05/10 06:33:13;;;;;;;4.30;1.60;;;;;;;24.89;33.21;96964.34;5074114;28;20027;-61
2022/05/10 06:35:40;;;;;;;2.75;1.63;;;;;;;24.89;33.48;96970.50;5072927;28;20020;-61
2022/05/10 06:40:50;;;;;;;6.18;1.42;;;;;;;25.03;33.36;96973.75;5074140;28;20131;-61
2022/05/10 06:43:17;;;;;;;4.93;1.33;;;;;;;25.18;31.05;96972.38;5074082;28;20450;-61
2022/05/10 06:45:43;;;;;;;3.60;1.50;;;;;;;25.31;29.25;96971.25;5073927;28;20082;-61
2022/05/10 06:48:09;;;;;;;6.00;1.90;;;;;;;25.51;28.98;96969.41;5073952;28;20027;-61
2022/05/10 06:50:36;;;;;;;2.40;1.30;;;;;;;25.65;30.45;96973.53;5073860;28;20024;-61
2022/05/10 06:53:02;;;;;;;6.18;1.60;;;;;;;25.81;29.13;96972.06;5073917;28;20024;-62
2022/05/10 06:55:30;;;;;;;4.25;1.55;;;;;;;25.90;30.12;96983.75;5073805;28;20425;-61
2022/05/10 06:57:55;;;;;;;3.70;1.60;;;;;;;25.77;29.65;96978.69;5073737;28;20119;-61
2022/05/10 07:00:21;;;;;;;2.55;1.40;;;;;;;25.76;26.49;96972.50;5073268;28;20043;-61
2022/05/10 07:02:48;;;;;;;2.70;1.38;;;;;;;25.63;24.67;96974.63;5073363;28;20025;-61
2022/05/10 07:05:15;;;;;;;1.98;1.52;;;;;;;24.97;26.36;96970.69;5073571;28;20025;-60
2022/05/10 07:07:41;;;;;;;4.50;1.60;;;;;;;24.41;26.55;96970.22;5073455;28;20020;-60
2022/05/10 07:10:10;;;;;;;4.05;1.55;;;;;;;24.14;27.49;96968.97;5073393;28;20470;-60
2022/05/10 07:12:40;;;;;;;6.60;1.60;;;;;;;23.87;29.34;96967.69;5073485;28;20047;-60
2022/05/10 07:15:09;;;;;;;6.78;1.45;;;;;;;24.19;27.94;96971.25;5073403;28;20035;-60
2022/05/10 07:17:38;;;;;;;4.05;1.88;;;;;;;24.51;27.78;96970.25;5073370;28;20039;-60
2022/05/10 07:20:08;;;;;;;3.35;1.52;;;;;;;24.31;26.72;96975.53;5073235;28;20159;-60
2022/05/10 07:22:34;;;;;;;4.88;1.50;;;;;;;23.84;26.25;96968.81;5073211;28;20429;-60
2022/05/10 07:25:00;;;;;;;3.03;1.70;;;;;;;23.87;26.38;96978.38;5073262;28;20021;-62
2022/05/10 07:27:25;;;;;;;2.45;1.60;;;;;;;23.92;28.65;96978.84;5073384;28;20020;-61
2022/05/10 07:29:51;;;;;;;3.13;1.40;;;;;;;23.95;28.06;96975.91;5073321;28;20061;-61
2022/05/10 07:32:19;;;;;;;3.25;1.67;;;;;;;24.31;26.75;96978.22;5073446;28;20063;-61
2022/05/10 07:34:45;;;;;;;3.25;1.30;;;;;;;24.46;27.90;96978.69;5073220;28;20077;-62
2022/05/10 07:37:11;;;;;;;3.83;1.73;;;;;;;24.53;26.42;96988.84;5073170;28;20028;-62
2022/05/10 07:39:37;;;;;;;4.13;1.70;;;;;;;23.54;26.63;96978.44;5072821;28;20075;-62
2022/05/10 07:42:04;;;;;;;5.10;1.50;;;;;;;23.70;26.96;96979.81;5073175;28;20025;-62
2022/05/10 07:44:31;;;;;;;5.82;1.90;;;;;;;23.79;27.96;96978.19;5073060;28;20056;-62
2022/05/10 07:46:57;;;;;;;2.17;1.60;;;;;;;23.43;28.07;96981.19;5073088;28;20115;-62
2022/05/10 07:49:24;;;;;;;5.00;1.92;;;;;;;23.35;27.55;96979.13;5073131;28;20557;-62
2022/05/10 07:51:51;;;;;;;2.97;1.70;;;;;;;23.59;29.77;96978.91;5072990;28;20025;-61
2022/05/10 07:54:17;;;;;;;1.70;1.30;;;;;;;23.30;27.04;96976.84;5073025;28;20427;-61
2022/05/10 07:56:44;;;;;;;4.60;1.30;;;;;;;23.31;29.25;96975.88;5072973;28;20090;-61
2022/05/10 07:59:09;;;;;;;3.00;1.48;;;;;;;23.43;28.79;96973.19;5072898;28;20031;-62
2022/05/10 08:01:36;;;;;;;3.20;1.40;;;;;;;23.47;27.60;96969.25;5072916;28;20389;-62
2022/05/10 08:04:03;;;;;;;3.92;1.67;;;;;;;23.59;28.43;96978.91;5072838;28;20029;-62
2022/05/10 08:06:28;;;;;;;2.25;1.48;;;;;;;23.57;29.71;96972.03;5073083;28;20025;-62
2022/05/10 08:08:54;;;;;;;6.88;1.63;;;;;;;23.27;27.53;96976.25;5072885;28;20027;-62
2022/05/10 08:11:20;;;;;;;2.28;1.35;;;;;;;23.40;27.33;96970.75;5072769;28;20040;-62
2022/05/10 08:13:46;;;;;;;2.08;1.50;;;;;;;23.55;28.48;96971.28;5076376;28;20417;-62
2022/05/10 08:16:12;;;;;;;1.88;1.17;;;;;;;23.63;24.58;96971.47;5076937;28;20032;-62
2022/05/10 08:18:45;;;;;;;5.60;1.40;;;;;;;23.70;26.58;96962.00;5076721;28;20052;-62
2022/05/10 08:21:13;;;;;;;6.53;1.60;;;;;;;23.98;25.05;96975.66;5076746;28;20111;-62
2022/05/10 08:23:39;;;;;;;3.67;1.80;;;;;;;24.17;26.72;96974.06;5076759;28;20081;-62
2022/05/10 08:26:06;;;;;;;3.72;1.98;;;;;;;24.09;27.00;96976.53;5076670;28;20108;-62
2022/05/10 08:28:34;;;;;;;6.82;1.90;;;;;;;23.76;26.98;96975.78;5076668;28;20476;-61
2022/05/10 08:31:03;;;;;;;2.72;2.00;;;;;;;23.43;27.83;96974.03;5075362;28;20032;-62
2022/05/10 08:33:32;;;;;;;4.28;2.20;;;;;;;23.31;28.31;96967.88;5076568;28;20035;-61
2022/05/10 08:35:59;;;;;;;3.72;1.98;;;;;;;22.96;28.91;96974.28;5076490;28;20032;-62
2022/05/10 08:38:29;;;;;;;3.60;1.92;;;;;;;23.02;29.75;96981.78;5076107;28;20021;-62
2022/05/10 08:41:45;;;;;;;5.23;1.80;;;;;;;23.18;29.04;96970.69;5076356;28;20119;-62
2022/05/10 08:44:11;;;;;;;4.70;1.63;;;;;;;23.27;30.18;96976.25;5063227;28;20315;-62
2022/05/10 08:46:41;;;;;;;3.92;1.70;;;;;;;22.78;29.32;96982.81;5076202;28;20037;-62
2022/05/10 08:49:25;;;;;;;8.67;2.27;;;;;;;22.75;31.41;96980.41;5076097;28;20031;-62
2022/05/10 08:51:52;;;;;;;3.03;1.70;;;;;;;22.83;30.73;96980.66;5074829;28;20303;-62
2022/05/10 08:54:19;;;;;;;3.83;2.03;;;;;;;22.85;29.37;96981.34;5076131;28;20024;-62
2022/05/10 08:56:58;;;;;;;5.40;2.03;;;;;;;22.42;29.71;96976.78;5076098;28;20029;-62
2022/05/10 08:59:51;;;;;;;3.57;1.67;;;;;;;22.32;30.70;96972.22;5075999;28;20032;-61
2022/05/10 09:02:29;;;;;;;2.30;1.45;;;;;;;22.06;30.75;96976.91;5075940;28;20475;-61
2022/05/10 09:05:00;;;;;;;8.38;1.75;;;;;;;22.11;30.36;96974.75;5076003;28;20467;-62
2022/05/10 09:07:38;;;;;;;4.07;2.17;;;;;;;22.02;30.83;96972.78;5075944;28;20043;-62
2022/05/10 09:10:12;;;;;;;6.80;1.65;;;;;;;22.10;29.39;96981.03;5075848;28;20029;-62
2022/05/10 09:12:58;;;;;;;5.82;2.33;;;;;;;21.78;30.46;96981.72;5075813;28;20020;-62
2022/05/10 09:15:27;;;;;;;3.58;1.63;;;;;;;21.57;30.71;96971.72;5075797;28;20037;-62
2022/05/10 09:17:53;;;;;;;3.50;2.00;;;;;;;21.40;31.15;96965.88;5075698;28;20382;-61
2022/05/10 09:20:20;;;;;;;2.88;1.60;;;;;;;21.79;32.77;96964.81;5075483;28;20032;-61
2022/05/10 09:23:03;;;;;;;5.18;1.75;;;;;;;22.21;32.87;96974.84;5075533;28;20039;-62
2022/05/10 09:25:37;;;;;;;3.22;1.70;;;;;;;22.00;31.11;96975.56;5074637;28;20027;-62
2022/05/10 09:28:21;;;;;;;4.20;2.13;;;;;;;21.66;30.56;96965.72;5075463;28;20071;-63
2022/05/10 09:36:26;;;;;;;4.05;1.42;;;;;;;22.09;31.98;96958.03;5075625;28;20028;-62
2022/05/10 09:38:59;;;;;;;3.95;1.50;;;;;;;21.99;30.25;96959.72;5075020;28;20049;-61
2022/05/10 09:41:38;;;;;;;2.05;1.40;;;;;;;21.86;31.85;96952.69;5075217;28;20024;-62
2022/05/10 09:44:18;;;;;;;2.45;1.40;;;;;;;21.75;31.59;96953.53;5075363;28;20020;-62
2022/05/10 09:46:44;;;;;;;2.73;1.80;;;;;;;21.83;32.66;96950.28;5075252;28;20029;-61
2022/05/10 09:49:30;;;;;;;5.20;1.77;;;;;;;22.04;30.10;96952.22;5075174;28;20029;-62
2022/05/10 09:52:00;;;;;;;5.05;1.95;;;;;;;22.11;29.66;96957.91;5074905;28;20021;-62
2022/05/10 09:54:36;;;;;;;5.65;1.50;;;;;;;21.95;29.24;96959.94;5074985;28;20021;-62
2022/05/10 09:57:02;;;;;;;3.10;1.50;;;;;;;21.81;31.02;96955.72;5074923;28;20048;-62
2022/05/10 09:59:38;;;;;;;1.83;1.50;;;;;;;21.74;29.66;96945.63;5074752;28;20022;-62
2022/05/10 10:02:05;;;;;;;3.28;1.30;;;;;;;21.70;30.46;96945.88;5074995;28;20073;-62
2022/05/10 10:04:34;;;;;;;7.55;1.92;;;;;;;21.94;31.16;96947.63;5074797;28;20052;-62
2022/05/10 10:07:13;;;;;;;4.25;1.40;;;;;;;22.05;29.91;96944.13;5074714;28;20127;-61
2022/05/10 10:09:43;;;;;;;3.00;1.55;;;;;;;22.09;28.99;96942.91;5074761;28;20021;-63
2022/05/10 10:12:35;;;;;;;3.22;1.45;;;;;;;22.05;28.70;96943.25;5074781;28;20020;-61
2022/05/10 10:15:20;;;;;;;4.38;1.40;;;;;;;22.27;28.91;96933.59;5074590;28;20386;-63
2022/05/10 10:17:59;;;;;;;2.40;1.13;;;;;;;22.45;28.20;96934.75;5074608;28;20063;-63
2022/05/10 10:20:47;;;;;;;3.88;1.70;;;;;;;22.01;28.64;96934.69;5074472;28;20021;-62
2022/05/10 10:23:28;;;;;;;3.88;1.63;;;;;;;21.82;28.97;96936.09;5074643;28;20050;-63
2022/05/10 10:26:01;;;;;;;7.40;1.52;;;;;;;21.95;31.97;96924.50;5074350;28;20028;-62
2022/05/10 10:28:33;;;;;;;5.82;1.30;;;;;;;22.31;29.07;96925.19;5073121;28;20094;-62
2022/05/10 10:31:10;;;;;;;4.15;1.63;;;;;;;22.08;29.38;96921.72;5074412;28;20033;-62
2022/05/10 10:33:44;;;;;;;3.10;1.60;;;;;;;21.87;29.39;96921.59;5074309;28;20017;-62
2022/05/10 10:36:16;;;;;;;2.15;1.50;;;;;;;22.02;29.62;96922.19;5074178;28;20020;-62
2022/05/10 10:38:55;;;;;;;2.75;1.50;;;;;;;22.07;29.01;96928.03;5073965;28;20049;-63
2022/05/10 10:41:27;;;;;;;2.13;1.50;;;;;;;22.29;31.14;96913.84;5073913;28;20443;-62
2022/05/10 10:44:14;;;;;;;3.35;1.67;;;;;;;22.69;30.77;96909.78;5074015;28;20540;-62
2022/05/10 10:47:05;;;;;;;3.15;1.40;;;;;;;22.88;31.23;96905.63;5074021;28;20021;-62
2022/05/10 10:49:55;;;;;;;4.70;1.90;;;;;;;23.00;29.41;96902.88;5073895;28;20024;-62
2022/05/10 10:52:23;;;;;;;3.97;1.73;;;;;;;23.12;29.65;96898.34;5073864;28;20115;-62
2022/05/10 10:54:49;;;;;;;2.95;1.40;;;;;;;23.27;27.76;96896.22;5073798;28;20028;-63
2022/05/10 10:57:51;;;;;;;3.67;1.60;;;;;;;23.46;30.73;96898.19;5073847;28;20025;-62
2022/05/10 11:00:19;;;;;;;4.88;1.40;;;;;;;23.45;29.08;96902.66;5073725;28;20032;-62
2022/05/10 11:02:52;;;;;;;3.05;1.20;;;;;;;23.30;27.28;96901.28;5073676;28;20086;-62
2022/05/10 11:05:28;;;;;;;2.90;1.30;;;;;;;22.76;27.89;96901.28;5073689;28;20525;-62
2022/05/10 11:08:08;;;;;;;3.05;1.70;;;;;;;22.17;29.26;96902.34;5073662;28;20043;-62
2022/05/10 11:10:34;;;;;;;;;;;;;;;22.27;28.99;96889.13;5073961;28;20035;-62
2022/05/10 11:13:37;;;;;;;7.00;1.80;;;;;;;22.42;29.55;96886.19;5073470;28;20281;-62
2022/05/10 11:16:24;;;;;;;5.72;1.75;;;;;;;22.25;29.32;96888.41;5051098;28;20052;-62
2022/05/10 11:18:52;;;;;;;4.60;1.30;;;;;;;22.29;31.38;96883.66;5073537;28;20025;-62
2022/05/10 11:21:49;;;;;;;4.53;1.80;;;;;;;22.51;31.72;96885.44;5073431;28;20077;-62
2022/05/10 11:24:29;;;;;;;3.33;1.88;;;;;;;22.84;32.62;96882.81;5073466;28;20024;-62
2022/05/10 11:27:30;;;;;;;2.80;1.60;;;;;;;23.01;29.25;96878.75;5073421;28;20429;-62
2022/05/10 11:29:58;;;;;;;2.30;1.55;;;;;;;22.62;29.34;96881.94;5072814;28;20387;-62
2022/05/10 11:32:42;;;;;;;2.58;1.42;;;;;;;22.49;28.94;96881.22;5073282;28;20028;-62
2022/05/10 11:35:19;;;;;;;3.72;1.58;;;;;;;22.43;29.59;96871.91;5073200;28;20036;-63
2022/05/10 11:38:00;;;;;;;4.97;1.75;;;;;;;22.50;30.68;96867.78;5073067;28;20478;-62
2022/05/10 11:40:31;;;;;;;6.13;1.60;;;;;;;22.08;29.97;96869.31;5072802;28;20059;-62
2022/05/10 11:43:36;;;;;;;1.67;1.40;;;;;;;21.80;30.26;96870.66;5073178;28;20028;-63
2022/05/10 11:46:07;;;;;;;2.78;1.52;;;;;;;21.57;30.89;96866.13;5073082;28;20029;-62
2022/05/10 11:49:14;;;;;;;3.97;1.58;;;;;;;21.74;32.12;96855.97;5072602;28;20023;-62
2022/05/10 11:52:28;;;;;;;3.80;1.30;;;;;;;21.98;30.76;96846.19;5041865;28;20115;-63
2022/05/10 11:55:14;;;;;;;1.45;1.17;;;;;;;22.26;31.11;96851.94;5059202;28;20079;-62
2022/05/10 11:57:42;;;;;;;5.63;1.60;;;;;;;22.66;33.42;96847.88;5073035;28;20028;-62
2022/05/10 12:00:26;;;;;;;3.53;1.58;;;;;;;22.93;31.62;96847.38;5072787;28;20060;-62
2022/05/10 12:02:53;;;;;;;6.53;1.70;;;;;;;23.05;29.82;96842.84;5073015;28;20033;-62
2022/05/10 12:05:23;;;;;;;2.38;1.50;;;;;;;23.21;31.11;96841.56;5073076;28;20025;-62
2022/05/10 12:08:21;;;;;;;3.08;1.50;;;;;;;23.35;30.07;96838.53;5072956;28;20033;-62
2022/05/10 12:10:47;;;;;;;6.32;1.80;;;;;;;23.39;28.73;96833.81;5067268;28;20115;-62
2022/05/10 12:22:20;;;;;;;4.78;1.35;;;;;;;22.47;29.86;96823.56;5073083;28;20109;-61
2022/05/10 12:24:50;;;;;;;2.00;1.20;;;;;;;22.22;28.86;96812.25;5072716;28;20461;-62
2022/05/10 12:27:16;;;;;;;2.33;1.38;;;;;;;22.32;29.68;96808.84;5072715;28;20081;-62